Don't throw away old warez disks! Save the gems!

PRE DATA

Datetime Release
2018-07-07 00:01:33 Homeland.S07E08.Luegen.Geruechte.Twitter.German.Dubbed.HDTV.x264-ITG
2018-07-07 00:14:23 Concrete.Revolutio.E08.Gehen.wir.weiter.als.der.Himmel.und.die.Sterne.German.2015.ANiME.DL.720p.BluRay.x264-3MiNA
2018-07-07 00:15:16 Concrete.Revolutio.E08.Gehen.wir.weiter.als.der.Himmel.und.die.Sterne.German.2015.ANiME.DL.BDRiP.x264-3MiNA
2018-07-07 00:16:10 Concrete.Revolutio.E09.Niemand.kennt.den.Rainbow.Knight.German.2015.ANiME.DL.1080p.BluRay.x264-3MiNA
2018-07-07 00:17:02 Concrete.Revolutio.E09.Niemand.kennt.den.Rainbow.Knight.German.2015.ANiME.DL.720p.BluRay.x264-3MiNA
2018-07-07 00:17:57 Concrete.Revolutio.E09.Niemand.kennt.den.Rainbow.Knight.German.2015.ANiME.DL.BDRiP.x264-3MiNA
2018-07-07 00:18:48 Concrete.Revolutio.E10.Ende.der.endlosen.Familie.German.2015.ANiME.DL.1080p.BluRay.x264-3MiNA
2018-07-07 00:19:37 Concrete.Revolutio.E10.Ende.der.endlosen.Familie.German.2015.ANiME.DL.720p.BluRay.x264-3MiNA
2018-07-07 00:19:58 Scott_Mills_-_BBC_Radio1s_Dance_Anthems-SAT-07-06-2018-TALiON
2018-07-07 00:20:25 Concrete.Revolutio.E10.Ende.der.endlosen.Familie.German.2015.ANiME.DL.BDRiP.x264-3MiNA
2018-07-07 00:21:19 Concrete.Revolutio.E11.Illusion.des.Schicksals.German.2015.ANiME.DL.1080p.BluRay.x264-3MiNA
2018-07-07 00:22:13 Concrete.Revolutio.E11.Illusion.des.Schicksals.German.2015.ANiME.DL.720p.BluRay.x264-3MiNA
2018-07-07 00:23:04 Concrete.Revolutio.E11.Illusion.des.Schicksals.German.2015.ANiME.DL.BDRiP.x264-3MiNA
2018-07-07 00:23:54 Concrete.Revolutio.E12.Der.Hakko.Supermenschunfall.German.2015.ANiME.DL.1080p.BluRay.x264-3MiNA
2018-07-07 00:24:43 Concrete.Revolutio.E12.Der.Hakko.Supermenschunfall.German.2015.ANiME.DL.720p.BluRay.x264-3MiNA
2018-07-07 00:25:36 Concrete.Revolutio.E12.Der.Hakko.Supermenschunfall.German.2015.ANiME.DL.BDRiP.x264-3MiNA
2018-07-07 00:26:32 Concrete.Revolutio.E13.Aufstaende.in.Shinjuku.German.2015.ANiME.DL.1080p.BluRay.x264-3MiNA
2018-07-07 00:26:34 Concrete.Reolutio.E13.Aufstaende.in.Shinjuku.German.2015.AANiME.DL.1080p.BluRay.x264-3MiNA
2018-07-07 00:27:23 Concrete.Revolutio.E13.Aufstaende.in.Shinjuku.German.2015.ANiME.DL.720p.BluRay.x264-3MiNA
2018-07-07 00:28:13 Concrete.Revolutio.E13.Aufstaende.in.Shinjuku.German.2015.ANiME.DL.BDRiP.x264-3MiNA
2018-07-07 00:29:06 Rosario.to.Vampire.E01.Neues.Leben.und.Vampire.German.2008.ANiME.DL.1080p.BluRay.x264-3MiNA
2018-07-07 00:29:11 Fritz_Kalkbrenner-Drown-(DS1801)-DIGIPAK-CD-FLAC-2018-dh
2018-07-07 00:29:54 Rosario.to.Vampire.E01.Neues.Leben.und.Vampire.German.2008.ANiME.DL.720p.BluRay.x264-3MiNA
2018-07-07 00:29:59 Annie_Mac_-_BBC_Radio1__Incl_Mele_Mini_Mix-SAT-07-06-2018-TALiON
2018-07-07 00:30:41 Rosario.to.Vampire.E01.Neues.Leben.und.Vampire.German.2008.ANiME.DL.BDRiP.x264-3MiNA
2018-07-07 00:31:34 Rosario.to.Vampire.E02.Ein.Succubus.und.ein.Vampir.German.2008.ANiME.DL.1080p.BluRay.x264-3MiNA
2018-07-07 00:32:19 Rosario.to.Vampire.E02.Ein.Succubus.und.ein.Vampir.German.2008.ANiME.DL.720p.BluRay.x264-3MiNA
2018-07-07 00:32:36 American.Ninja.Warrior.S10E05.720p.HDTV.x264-W4F
2018-07-07 00:33:12 Rosario.to.Vampire.E02.Ein.Succubus.und.ein.Vampir.German.2008.ANiME.DL.BDRiP.x264-3MiNA
2018-07-07 00:34:00 Rosario.to.Vampire.E03.Eine.Hexe.und.ein.Vampir.German.2008.ANiME.DL.1080p.BluRay.x264-3MiNA
2018-07-07 00:34:47 Rosario.to.Vampire.E03.Eine.Hexe.und.ein.Vampir.German.2008.ANiME.DL.720p.BluRay.x264-3MiNA
2018-07-07 00:35:09 SicWitDaPen_and_IceRocks-10467-EP-WEB-2018-UVU_INT
2018-07-07 00:35:37 Rosario.to.Vampire.E03.Eine.Hexe.und.ein.Vampir.German.2008.ANiME.DL.BDRiP.x264-3MiNA
2018-07-07 00:36:27 Rosario.to.Vampire.E04.Ein.Lebwohl.und.ein.Vampir.German.2008.ANiME.DL.1080p.BluRay.x264-3MiNA
2018-07-07 00:36:46 Pick.up.Battle.USA.S01E04.Alt.gegen.Neu.GERMAN.DL.DOKU.1080p.HDTV.x264-MDGP
2018-07-07 00:37:17 Rosario.to.Vampire.E04.Ein.Lebwohl.und.ein.Vampir.German.2008.ANiME.DL.720p.BluRay.x264-3MiNA
2018-07-07 00:37:48 American.Ninja.Warrior.S10E05.HDTV.x264-W4F
2018-07-07 00:38:06 Rosario.to.Vampire.E04.Ein.Lebwohl.und.ein.Vampir.German.2008.ANiME.DL.BDRiP.x264-3MiNA
2018-07-07 00:38:24 Chicago.PD.S05E16.FRENCH.HDTV.x264-AMB3R
2018-07-07 00:39:02 Rosario.to.Vampire.E05.Bikkini.Vampir.German.2008.ANiME.DL.1080p.BluRay.x264-3MiNA
2018-07-07 00:39:49 Rosario.to.Vampire.E05.Bikkini.Vampir.German.2008.ANiME.DL.720p.BluRay.x264-3MiNA
2018-07-07 00:39:58 Pete_Tong_-_BBC_Radio1__Incl_Derrick_Carter_Guestmix-SAT-07-06-2018-TALiON
2018-07-07 00:40:38 Rosario.to.Vampire.E05.Bikkini.Vampir.German.2008.ANiME.DL.BDRiP.x264-3MiNA
2018-07-07 00:41:28 Rosario.to.Vampire.E06.Schuelerzeitung.Vampir.German.2008.ANiME.DL.1080p.BluRay.x264-3MiNA
2018-07-07 00:41:30 Rosario.to.ampire.E06.Schuelerzeitung.Vampir.German.2008.AANiME.DL.1080p.BluRay.x264-3MiNA
2018-07-07 00:42:13 Rosario.to.Vampire.E06.Schuelerzeitung.Vampir.German.2008.ANiME.DL.720p.BluRay.x264-3MiNA
2018-07-07 00:42:58 Rosario.to.Vampire.E06.Schuelerzeitung.Vampir.German.2008.ANiME.DL.BDRiP.x264-3MiNA
2018-07-07 00:43:54 School.live.E01.Anfang.German.2015.ANiME.DL.1080p.BluRay.x264-3MiNA
2018-07-07 00:44:38 School.live.E01.Anfang.German.2015.ANiME.DL.720p.BluRay.x264-3MiNA
2018-07-07 00:45:29 School.live.E01.Anfang.German.2015.ANiME.DL.BDRiP.x264-3MiNA
2018-07-07 00:46:22 School.live.E02.Andenken.German.2015.ANiME.DL.1080p.BluRay.x264-3MiNA
2018-07-07 00:47:09 School.live.E02.Andenken.German.2015.ANiME.DL.720p.BluRay.x264-3MiNA
2018-07-07 00:47:57 School.live.E02.Andenken.German.2015.ANiME.DL.BDRiP.x264-3MiNA
2018-07-07 00:48:45 School.live.E03.Damals.German.2015.ANiME.DL.1080p.BluRay.x264-3MiNA
2018-07-07 00:49:32 School.live.E03.Damals.German.2015.ANiME.DL.720p.BluRay.x264-3MiNA
2018-07-07 00:50:20 School.live.E03.Damals.German.2015.ANiME.DL.BDRiP.x264-3MiNA
2018-07-07 00:51:17 School.live.E04.Ausflug.German.2015.ANiME.DL.1080p.BluRay.x264-3MiNA
2018-07-07 00:52:05 School.live.E04.Ausflug.German.2015.ANiME.DL.720p.BluRay.x264-3MiNA
2018-07-07 00:52:53 School.live.E04.Ausflug.German.2015.ANiME.DL.BDRiP.x264-3MiNA
2018-07-07 00:59:59 Adam_Beyer_-_Drumcode_Live__Incl_Charlotte_de_Witte_Guestmix-SAT-07-06-2018-TALiON
2018-07-07 02:00:00 Nicole_Moudaber_-_In_the_Mood_219__Live_at_Mood_on_The_Hudson_(New_York)-SAT-07-07-2018-TALiON
2018-07-07 02:27:32 FIFA.World.Cup.2018.Quarter.Final.Brazil.Vs.Belgium.HDTV.x264-PLUTONiUM
2018-07-07 02:29:02 Days.of.our.Lives.S53E199.720p.WEB.x264-W4F
2018-07-07 02:31:40 Marvels.Cloak.and.Dagger.S01E06.Funhouse.Mirrors.720p.HDTV.x264-CRiMSON
2018-07-07 02:32:03 Marvels.Cloak.and.Dagger.S01E06.Funhouse.Mirrors.HDTV.x264-CRiMSON
2018-07-07 02:33:55 DigitalPlayground.18.07.07.Alexis.Fawx.Tightest.MILF.On.The.Block.XXX.1080p.MP4-KTR
2018-07-07 02:35:54 ExtremeBukkake.18.07.06.Barbara.Bieber.And.Paola.Mike.In.The.Sperm.Land.GERMAN.XXX.1080p.MP4-KTR
2018-07-07 02:37:51 GGGDevot.18.07.04.Luna.Corazon.And.Ria.Sunn.Cum.And.Piss.65.GERMAN.XXX.1080p.MP4-KTR
2018-07-07 02:39:25 HandsOnHardcore.18.07.07.Nelly.Kent.And.Rebecca.Volpetti.XXX.1080p.MP4-KTR
2018-07-07 02:42:26 HandsOnHardcore.18.07.07.Nelly.Kent.And.Rebecca.Volpetti.XXX.2160p.MP4-KTR
2018-07-07 02:43:56 Passion-HD.18.07.07.Mia.Collins.Summer.Feels.XXX.1080p.MP4-KTR
2018-07-07 02:47:41 Passion-HD.18.07.07.Mia.Collins.Summer.Feels.XXX.2160p.MP4-KTR
2018-07-07 02:48:28 Face.Off.S13E03.Aztec.Aliens.720p.HDTV.x264-CRiMSON
2018-07-07 02:48:51 Face.Off.S13E03.Aztec.Aliens.HDTV.x264-CRiMSON
2018-07-07 02:49:39 Private.18.07.07.Melissa.Benz.Enjoys.Anal.In.Barcelona.XXX.1080p.MP4-KTR
2018-07-07 02:51:08 Stargate.SG-1.S06E04.SPANiSH.HR.WS.PDTV.x264-4FiRE
2018-07-07 02:52:22 Private.18.07.07.Melissa.Benz.Enjoys.Anal.In.Barcelona.XXX.2160p.MP4-KTR
2018-07-07 02:53:09 Stargate.SG-1.S06E06.SPANiSH.HR.WS.PDTV.x264-4FiRE
2018-07-07 03:05:18 Quantico.S03E09.720p.HDTV.x264-KILLERS
2018-07-07 03:10:32 Quantico.S03E09.HDTV.x264-KILLERS
2018-07-07 03:10:48 Rizom.Lab.RizomUV.Real.Space.v2018.0.85.MACOSX-AMPED
2018-07-07 03:11:03 Rizom.Lab.RizomUV.Real.Space.v2018.0.85.X64-AMPED
2018-07-07 03:11:14 Rizom.Lab.RizomUV.Virtual.Spaces.v2018.0.85.MACOSX-AMPED
2018-07-07 03:11:26 Rizom.Lab.RizomUV.Virtual.Spaces.v2018.0.85.X64-AMPED
2018-07-07 03:13:11 JoshStoneXXX.18.03.26.Loni.Legend.XXX.720p.MP4-KTR
2018-07-07 03:14:33 JoshStoneXXX.18.06.01.Harlow.Harrison.XXX.720p.MP4-KTR
2018-07-07 03:15:42 JoshStoneXXX.18.06.08.Alexis.Golden.XXX.720p.MP4-KTR
2018-07-07 03:18:00 JoshStoneXXX.18.06.29.Karen.Kougar.XXX.720p.MP4-KTR
2018-07-07 03:19:09 JoshStoneXXX.18.07.06.Daniella.XXX.720p.MP4-KTR
2018-07-07 03:20:01 UFOs.The.Lost.Evidence.S01E06.HDTV.x264-W4F
2018-07-07 03:23:49 Macys.4th.of.July.Fireworks.Spectacular.2018.720p.HDTV.x264-W4F
2018-07-07 03:25:45 NBC10.Presents.Best.of.the.4th.of.July.Parkway.Celebration.2018.iNTERNAL.HDTV.x264-W4F
2018-07-07 03:27:40 NBC10.Presents.Best.of.the.4th.of.July.Parkway.Celebration.2018.iNTERNAL.720p.HDTV.x264-W4F
2018-07-07 03:29:36 Ciao.Italia.S22E13.Clams.and.Le.Vongole.PDTV.x264-W4F
2018-07-07 03:31:30 Ciao.Italia.S22E21.Cooking.for.Friends.and.Cucinando.Per.Gli.Amici.PDTV.x264-W4F
2018-07-07 03:33:23 Home.And.Away.S31E78.720p.HDTV.x264-CCT
2018-07-07 03:33:51 Home.And.Away.S31E78.HDTV.x264-CCT
2018-07-07 03:35:20 Home.And.Away.S31E79.720p.HDTV.x264-CCT
2018-07-07 03:35:56 Home.And.Away.S31E79.HDTV.x264-CCT
2018-07-07 03:37:27 Home.And.Away.S31E80-E82.720p.HDTV.x264-CCT
2018-07-07 03:38:17 Home.And.Away.S31E80-E82.HDTV.x264-CCT
2018-07-07 03:40:07 Home.And.Away.S31E83.720p.HDTV.x264-CCT
2018-07-07 03:40:57 Home.And.Away.S31E83.HDTV.x264-CCT
2018-07-07 03:42:40 Home.And.Away.S31E86-E88.720p.HDTV.x264-CCT
2018-07-07 03:43:15 Home.And.Away.S31E86-E88.HDTV.x264-CCT
2018-07-07 03:50:34 AFL.2018.Round.14.Bombers.vs.Eagles.1080p.HDTV.x264-WiNNiNG
2018-07-07 03:54:32 Insane.Pools.Off.the.Deep.End.S03E04.Dream.Mulligan.WEB.x264-CAFFEiNE
2018-07-07 03:56:08 AFL.2018.Round.14.Bombers.vs.Eagles.720p.HDTV.x264-WiNNiNG
2018-07-07 03:57:41 AFL.2018.Round.14.Bombers.vs.Eagles.HDTV.x264-WiNNiNG
2018-07-07 03:59:39 AFL.2018.Round.14.Power.vs.Demons.1080p.HDTV.x264-WiNNiNG
2018-07-07 04:01:32 AFL.2018.Round.14.Power.vs.Demons.720p.HDTV.x264-WiNNiNG
2018-07-07 04:03:56 AFL.2018.Round.14.Power.vs.Demons.HDTV.x264-WiNNiNG
2018-07-07 04:17:59 Lucas_and_Steve_-_Skyline_Sessions_079-CABLE-07-07-2018-TALiON
2018-07-07 04:18:58 Tiesto_-_Club_Life_588__Incl_Brohug_Guestmix-CABLE-07-07-2018-TALiON
2018-07-07 04:20:58 Mike_Williams_-_On_Track_078-CABLE-07-07-2018-TALiON
2018-07-07 04:22:59 Firebeatz_-_Ignite_Radio_030-CABLE-07-07-2018-TALiON
2018-07-07 04:42:24 Ravens.Home.S02E06.The.Missteps.720p.HDTV.x264-CRiMSON
2018-07-07 05:14:37 12.Monkeys.S04E10-E11.720p.HDTV.x264-KILLERS
2018-07-07 05:16:46 12.Monkeys.S04E10-E11.HDTV.x264-KILLERS
2018-07-07 05:36:20 X-Art.18.07.06.Gina.Our.Lucky.Day.XXX.1080p.MP4-KTR
2018-07-07 05:39:04 X-Art.18.07.06.Gina.Our.Lucky.Day.XXX.2160p.MP4-KTR
2018-07-07 05:41:43 AssTraffic.18.07.07.Kiara.Gold.XXX.1080p.MP4-KTR
2018-07-07 05:49:52 Masters.of.Anima.Build.20180621.RIP-SiMPLEX
2018-07-07 06:00:38 Dr.Greger.Latest.In.Clinical.Nutrition.Vol.35.TUTORIAL-SoSISO
2018-07-07 06:01:32 Dr.Greger.Latest.In.Clinical.Nutrition.Vol.36.TUTORIAL-SoSISO
2018-07-07 06:03:16 Cosmid.net_18.07.07.Milena.Shore.Milenas.Bathroom.Set.XXX.iMAGESET-YAPG
2018-07-07 06:04:41 Bjrn_Torske-Byen-WEB-2018-NDE
2018-07-07 06:05:40 Cam_Maclean-Wait_For_Love-WEB-2018-NDE
2018-07-07 06:06:54 Con_Brio-Explorer-WEB-2018-NDE
2018-07-07 06:14:00 Carmelo_Carone-Phenomenon-WEB-2018-NDE
2018-07-07 06:15:08 Graham_Reznick-Robophasia-WEB-2018-NDE
2018-07-07 06:16:25 Hellacello-Dream_Talk-WEB-2018-NDE
2018-07-07 06:18:10 Iman_Magnetic-Back_To_Square_One-WEB-2018-NDE
2018-07-07 06:18:59 ZombieLars.S02E06.NORWEGiAN.720p.WEB.x264-CURRYKETCHUP
2018-07-07 06:19:31 WEN-EPHEMERA-WEB-2018-NDE
2018-07-07 06:21:42 The.Way.v1.07b.RIP-SiMPLEX
2018-07-07 06:27:38 54_On_The_Floor-Midnight_Disco_Delights-WEB-2018-NDE
2018-07-07 06:28:46 Afterlife-String_Theory-WEB-2018-NDE
2018-07-07 06:30:05 Chix_With_Guitars-Solid_Rock-WEB-2018-NDE
2018-07-07 06:31:38 Craggz_And_Parallel_Forces-Northen_Soul-WEB-2018-NDE
2018-07-07 06:32:36 Delacave-The_Window_Has_No_Glass-WEB-2018-NDE
2018-07-07 06:33:41 Vbnd-Daughter_Of_The_Sun-WEB-2018-NDE
2018-07-07 06:55:40 NBC10.Presents.Welcome.America.July.4th.Concert.on.the.Parkway.2018.HDTV.x264-W4F
2018-07-07 07:01:56 Fort_Romeau_-_Essential_Mix-SAT-07-07-2018-TALiON
2018-07-07 07:02:22 Danny_Howard_-_BBC_Radio1-SAT-07-06-2018-TALiON
2018-07-07 07:03:19 B.Traits_-_BBC_Radio1-SAT-07-07-2018-TALiON
2018-07-07 07:03:20 Beat_Monkey-WEB-2018-NDE
2018-07-07 07:04:33 CHVM.-I.Art.Life-WEB-2018-NDE
2018-07-07 07:05:30 Dataless-The_Space_In_Between-WEB-2018-NDE
2018-07-07 07:07:48 Dustin_Lefholz-Deeper_Than_Matter-WEB-2018-NDE
2018-07-07 07:08:55 Iroku_Lee-Chakra-WEB-2018-NDE
2018-07-07 07:10:42 Lil_Doggy-Sounds_From_The_Streets-WEB-2018-NDE
2018-07-07 07:12:25 Il.Corriere.Della.Sera.07.07.2018.iTALiAN.RETAiL.eBook-DiVER
2018-07-07 07:15:39 Makia_Blue-5th_Element-WEB-2018-NDE
2018-07-07 07:17:21 Mr.Echo-Cocktail_Lounge-WEB-2018-NDE
2018-07-07 07:18:09 Mr._Cold-Go_Crazy-WEB-2017-NDE
2018-07-07 07:19:11 Mr._Cold-Go_Crazy_Pt._II-WEB-2018-NDE
2018-07-07 07:20:06 Mu_Vonz-Mu_Vonz-WEB-2018-NDE
2018-07-07 07:25:20 Star.Trek.Beyond.2016.MULTi.TRUEFRENCH.2160p.UHD.BluRay.x265-SESKAPiLE
2018-07-07 07:28:26 KVSTR-Beats_For_Breakfast-WEB-2018-NDE
2018-07-07 07:29:38 MC_KJH-Illusion_Of_Music_Pt._One-WEB-2018-NDE
2018-07-07 07:30:38 Michael_Wall-May_2015-WEB-2018-NDE
2018-07-07 07:31:55 Philthy-Party_Crashers-WEB-2018-NDE
2018-07-07 07:32:55 Walton-Black_Lotus-WEB-2018-NDE
2018-07-07 07:34:39 ATKPremium.com_18.07.07.Sophia.Leone.XXX.IMAGESET-FuGLi
2018-07-07 07:42:20 La.Gazzetta.Dello.Sport.07.07.2018.iTALiAN.RETAiL.eBook-DiVER
2018-07-07 07:48:02 The.Dead.Files.S12E04.A.Thousand.Pieces.iNTERNAL.720p.HDTV.x264-DHD
2018-07-07 07:52:26 No_Problem-Let_God_Sort_Em_Out-WEB-2018-NDE
2018-07-07 07:53:16 The.Ultimate.Fighter.S27.Finale.Early.Prelims.WEB.h264-VERUM
2018-07-07 07:53:23 OZMOTIC-Elusive_Balance-WEB-2018-NDE
2018-07-07 07:54:36 Post_Magone-All_The_Feels-WEB-2018-NDE
2018-07-07 07:54:49 The.Ultimate.Fighter.S27.Finale.Early.Prelims.720p.WEB.h264-VERUM
2018-07-07 07:55:38 Raphy_Beltre-Man_Of_The_Woods-WEB-2018-NDE
2018-07-07 07:56:25 The.Ultimate.Fighter.S27.Finale.Prelims.WEB.h264-VERUM
2018-07-07 07:57:16 Rate_Attack-Rate_Attack-WEB-2018-NDE
2018-07-07 07:57:21 Dennis_Cruz-Freaks-(HOTC117)-WEB-2018-PWT
2018-07-07 07:59:14 Swiinta-Umthandazo-WEB-2018-NDE
2018-07-07 07:59:18 The.Ultimate.Fighter.S27.Finale.Prelims.720p.WEB.h264-VERUM
2018-07-07 08:00:04 Thomasboi_Ken-A.J._Lead_The_Way-WEB-2018-NDE
2018-07-07 08:00:54 Xark-Press_Back_For_Love-WEB-2018-NDE
2018-07-07 08:02:54 VA-Slide_Guitar_Blues-WEB-2018-ENTiTLED
2018-07-07 08:04:42 FIFA.World.Cup.2018.Quarter.Final.Uruguay.vs.France.1080p.HDTV.x264-VERUM
2018-07-07 08:09:18 FIFA.World.Cup.2018.Quarter.Final.Brazil.vs.Belgium.1080p.HDTV.x264-VERUM
2018-07-07 08:14:34 Block_And_Crown-Fall_Once_Again-(NG008)-WEB-2018-PWT
2018-07-07 08:43:09 Hochsee.Cowboys.S07E08.Gefaehrliche.Fahrt.GERMAN.DL.DOKU.1080p.HDTV.x264-MDGP
2018-07-07 08:47:53 TMZ.on.TV.2018.07.05.720p.WEB.x264-TBS
2018-07-07 08:48:10 TMZ.on.TV.2018.07.05.WEB.x264-TBS
2018-07-07 08:55:24 Jam_El_Mar_and_Adina_Butar-Right_in_The_Night-WEB-2018-AFO
2018-07-07 08:56:31 Naruto.Shippuden.Vol104.Multi.Dvdrip.X264-MANGACiTY
2018-07-07 08:56:40 Giuseppe_Ottaviani_and_Christian_Burns-Brightheart__Incl_Robert_Nickson_Extended_Remix-WEB-2018-AFO
2018-07-07 09:02:54 Gareth_Emery_Feat._Evan_Henzi-Call_to_Arms_(Extended_Mix)-WEB-2018-AFO
2018-07-07 09:03:34 Ruben_De_Ronde_X_Rodg_X_Sir_Notch-Larger_than_Life__Incl_Elevven_Extended_Remix-WEB-2018-AFO
2018-07-07 09:03:36 Ruben_De_onde_X_Rodg_X_Sir_Notch-Larger_than_Life__Incl__Elevven_Extended_Remix-WEB-2018-AFO
2018-07-07 09:03:38 Ruben_De_Ronde_X_Rodg_X_Sir_Notch-Larger_han_Life__Incl__Elevven_Extended_Remix-WEB-2018-AFO
2018-07-07 09:06:22 Coopers.Treasure.S02E03.WEBRip.x264-TBS
2018-07-07 09:07:18 TheLifeErotic.com_18.07.07.Charli.Red.Cool.Sensation.1.XXX.IMAGESET-FuGLi
2018-07-07 09:09:05 Mamma.Mia.2008.MULTi.COMPLETE.UHD.BLURAY-PRECELL
2018-07-07 09:13:06 Oral_Samli-Conarium_Soundtrack-WEB-2017-I_KnoW
2018-07-07 09:15:18 Futurama.S05E02.Gebell.aus.der.Steinzeit.GERMAN.FS.HDTVRip.x264.iNTERNAL-TMSF
2018-07-07 09:15:34 Futurama.S04E12.Der.letzte.Trekki.GERMAN.DL.FS.1080p.HDTV.x264-TMSF
2018-07-07 09:15:35 Futurama.S04E12.Der.letzte.Trekki.GERMAN.DL.FS.108p.HDTV.x264-TMSSF
2018-07-07 09:16:40 Futurama.S04E12.Der.letzte.Trekki.GERMAN.DL.FS.720p.HDTV.x264-TMSF
2018-07-07 09:17:45 Futurama.S04E12.Der.letzte.Trekki.GERMAN.FS.HDTVRip.x264.iNTERNAL-TMSF
2018-07-07 09:18:19 Coopers.Treasure.S02E03.720p.WEBRip.x264-TBS
2018-07-07 09:18:52 Futurama.S05E02.Gebell.aus.der.Steinzeit.GERMAN.DL.FS.1080p.HDTV.x264-TMSF
2018-07-07 09:24:26 Casino_Versus_Japan-Suicide_By_Sun-WEB-2018-NDE
2018-07-07 09:24:44 Kyyngg-Supa_Kyyngg-WEB-2017-ESG
2018-07-07 09:25:31 Charlie_Munro-Witzelsucht-WEB-2018-NDE
2018-07-07 09:26:30 Jacob_Nico-Outer_Mongolia-WEB-2018-NDE
2018-07-07 09:27:27 Lori_Scacco-Desire_Loop-WEB-2018-NDE
2018-07-07 09:28:19 Synthese-Gasberg-WEB-2018-NDE
2018-07-07 09:29:47 The_Electric_Huntsman-EDM_Smash_Bash-WEB-2018-NDE
2018-07-07 09:30:05 Coast_2_Coast_Feat._Discovery-Home__Incl_Ruddaz_Extended_Remix-WEB-2018-AFO
2018-07-07 09:30:27 Rolfiek_and_Guy_Alexander-Light_Force_(Extended_Mix)-WEB-2018-AFO
2018-07-07 09:30:56 Formal_One_Feat._Vika-Edge_of_Time__Incl_Assaf_Extended_Remix-WEB-2018-AFO
2018-07-07 09:31:21 The_Klub_Bandits-A_Nation_United_By_Dance-WEB-2018-NDE
2018-07-07 09:31:24 Hebridernas.Okanda.Djurliv.Part.E01.SWEDiSH.720p.WEB.h264-SweWR
2018-07-07 09:32:15 VA-Rollin_Thru-WEB-2018-NDE
2018-07-07 09:32:53 Jack_Vath_and_J.Puchler-Destin_(Extended_Versions)-WEB-2018-AFO
2018-07-07 09:36:13 TeensLikeItBig.14.10.25.Carter.Cruise.And.Chanel.Preston.Carters.Too.Old.For.Trick.Or.Treating.INTERNAL.XXX.1080p.MP4-PORNCHiVE
2018-07-07 09:37:19 Goshfather_feat_Catalyst_-_Crazy-(BT008)-WEB-2017-ZzZz
2018-07-07 09:37:20 Death.in.Paradise.S07E07.German.DL.720p.HDTV.x264-BTVG
2018-07-07 09:38:50 Death.in.Paradise.S07E07.German.HDTVRiP.x264-BTVG
2018-07-07 09:39:33 Deam_Boyz_-_Halla_Halla-(3615933286116)-WEB-2018-ZzZz
2018-07-07 09:39:52 BlackIsBetter.18.07.07.Ava.Little.Puppy.Love.XXX.1080p.MP4-KTR
2018-07-07 09:41:10 Salamander.S02E03.German.720p.HDTV.x264-BTVG
2018-07-07 09:41:12 MilfsLikeItBig.18.07.07.Jasmine.Jae.Horsing.Around.With.The.Stable.Boy.XXX.1080p.MP4-KTR
2018-07-07 09:41:58 Robert_William_and_Cicco_DJ_feat_Kiki_-_Get_Out-(RCKGO)-WEB-2018-ZzZz
2018-07-07 09:42:52 Salamander.S02E03.German.HDTVRiP.x264-BTVG
2018-07-07 09:44:42 Salamander.S02E04.German.DL.1080p.HDTV.x264-BTVG
2018-07-07 09:46:06 FemJoy.18.07.06.Aida.Brisa.XXX.1080p.MP4-KTR
2018-07-07 09:47:06 The_Most_-_Europe-(106085)-WEB-2018-ZzZz
2018-07-07 09:47:20 FemJoy.18.07.07.Natalia.E.Sunny.XXX.1080p.MP4-KTR
2018-07-07 09:48:48 Hit_Maker_-_You_and_Me-(3615933285935)-WEB-2018-ZzZz
2018-07-07 09:52:26 Requiem.For.A.Vampire.1971.REMASTERED.720p.BluRay.x264-CREEPSHOW
2018-07-07 09:52:50 Dante_LaBelle_-_Love_and_All_That-(DANTECAT01)-WEB-2018-ZzZz
2018-07-07 09:53:10 21EroticAnal.18.07.07.Nicole.Pearl.Picking.The.Forbidden.Fruit.XXX.1080p.MP4-KTR
2018-07-07 09:55:09 AssholeFever.18.07.07.Amirah.Adara.Balls.Deep.XXX.1080p.MP4-KTR
2018-07-07 09:55:20 Futurama.S04E11.Das.Kochduell.GERMAN.FS.HDTVRip.x264.iNTERNAL-TMSF
2018-07-07 09:55:30 Requiem.For.A.Vampire.1971.REMASTERED.1080p.BluRay.x264-CREEPSHOW
2018-07-07 09:56:30 DogHouseDigital.18.07.07.Silvia.Dellai.Silvia.Loves.DP.XXX.1080p.MP4-KTR
2018-07-07 09:58:44 El.Tirador.S03E03.SPANiSH.1080p.WEB.x264-FCC
2018-07-07 09:58:45 LesbianX.18.07.07.Ivy.Lebelle.And.Joanna.Angel.Strap.It.On.XXX.1080p.MP4-KTR
2018-07-07 09:59:05 El.Tirador.S03E03.SPANiSH.720p.WEB.x264-FCC
2018-07-07 09:59:27 El.Tirador.S03E03.SPANiSH.WEB.x264-FCC
2018-07-07 10:00:10 Preacher.S03E02.SPANiSH.720p.WEBRip.x264-FCC
2018-07-07 10:00:23 MommysGirl.18.07.07.Aidra.Fox.And.Syren.De.Mer.The.Sapphic.Psychic.XXX.1080p.MP4-KTR
2018-07-07 10:00:36 Preacher.S03E02.SPANiSH.WEBRip.x264-FCC
2018-07-07 10:01:20 The.Handmaids.Tale.S02E12.SPANiSH.720p.WEBRip.x264-FCC
2018-07-07 10:01:46 The.Handmaids.Tale.S02E12.SPANiSH.WEBRip.x264-FCC
2018-07-07 10:02:08 RoccoSiffredi.18.07.07.Tina.R.And.Marica.Chanel.XXX.1080p.MP4-KTR
2018-07-07 10:02:55 VA_-_Eurobeat_Kudos_24-(10136895)-WEB-2018-ZzZz
2018-07-07 10:04:14 ImmoralLive.18.07.07.Tiffany.Tatum.XXX.1080p.MP4-KTR
2018-07-07 10:04:59 Nubiles.net_18.07.07.Amanda.June.Teen.Sweetheart.XXX.IMAGESET-FuGLi
2018-07-07 10:05:20 Nubiles.net_18.07.07.Adel.Morel.Pussy.Play.XXX.IMAGESET-FuGLi
2018-07-07 10:07:11 MasterChef.Australia.S10E44.HDTV.x264-FQM
2018-07-07 10:07:32 BFFS.18.07.07.Hoes.Before.Bros.XXX.1080p.MP4-KTR
2018-07-07 10:07:33 MasterChef.Australia.S10E44.720p.HDTV.x264-ORENJI
2018-07-07 10:08:38 VA_-_EDM_2018_(30_Summer_Hits)-(PCI05442)-WEB-2018-ZzZz
2018-07-07 10:09:38 TeenPies.18.07.07.Amilia.Onyx.XXX.1080p.MP4-KTR
2018-07-07 10:10:13 Gott.vergibt.Django.nie.German.REMASTERED.1967.AC3.BDRip.x264-SPiCY
2018-07-07 10:12:14 Blut.am.Fargo.River.1945.German.DL.1080p.BluRay.x264-iNKLUSiON
2018-07-07 10:14:21 BangPOV.18.07.07.Jade.Kush.XXX.1080p.MP4-KTR
2018-07-07 10:14:29 F1.2018.Grosser.Preis.von.Grossbritannien.2.Freies.Training.in.Silverstone.German.720p.HDTV.x264-F1ANA
2018-07-07 10:15:28 Breaking.Big.S01E04.Jason.Aldean.WEB.h264-TBS
2018-07-07 10:15:49 Breaking.Big.S01E04.Jason.Aldean.1080p.WEB.h264-TBS
2018-07-07 10:16:11 Gott.vergibt.Django.nie.1967.German.720p.BluRay.x264-SPiCY
2018-07-07 10:16:14 AllOver30.18.07.07.Animee.XXX.1080p.MP4-KTR
2018-07-07 10:16:21 Blut.am.Fargo.River.German.REMASTERED.1945.AC3.BDRip.x264-iNKLUSiON
2018-07-07 10:16:48 Breaking.Big.S01E04.Jason.Aldean.720p.WEB.h264-TBS
2018-07-07 10:17:20 AllOver30.18.07.07.Animee.XXX.2160p.MP4-KTR
2018-07-07 10:19:28 F1.2018.Grosser.Preis.von.Grossbritannien.2.Freies.Training.in.Silverstone.German.1080p.HDTV.x264-F1ANA
2018-07-07 10:19:56 Arte.Regards.Mutilations.Sexuelles.DOC.FRENCH.WEB.H264-SLiP
2018-07-07 10:20:15 MetArtX.18.07.07.Aislin.Kiev.Novelas.XXX.1080p.MP4-KTR
2018-07-07 10:21:09 Arte.Regards.Mutilations.Sexuelles.DOC.FRENCH.720p.WEB.H264-SLiP
2018-07-07 10:22:45 Gott.vergibt.Django.nie.1967.German.1080p.BluRay.x264-SPiCY
2018-07-07 10:22:49 BangPOV.18.07.07.Jade.Kush.XXX.2160p.MP4-KTR
2018-07-07 10:26:30 NubileFilms.18.07.07.Cherry.Kiss.Keep.Me.Coming.XXX.1080p.MP4-KTR
2018-07-07 10:27:08 Nubiles.18.07.07.Emily.Brix.Sexy.Sweet.XXX.1080p.MP4-KTR
2018-07-07 10:28:59 Block_Parent-Amongst_the_Hurtin_Mess-WEB-2018-ENTiTLED
2018-07-07 10:29:38 COPE-Wounds-SINGLE-WEB-2018-ENTiTLED
2018-07-07 10:29:43 Gott.vergibt.Django.nie.German.REMASTERED.1967.Langfassung.AC3.BDRip.x264-SPiCY
2018-07-07 10:35:27 FALCONCREST_and_Camoflauge_Monk-Valhalla_Inn-EP-WEB-2018-UVU
2018-07-07 10:35:30 Gott.vergibt.Django.nie.1967.Langfassung.German.720p.BluRay.x264-SPiCY
2018-07-07 10:35:39 Ruste_Juxx_and_Jake_Palumbo-Jake_And_The_Juxxman-WEB-2018-UVU
2018-07-07 10:35:49 Ray_West_and_The_Soul_Misfits-Ray_West_and_The_Soul_Misfits-WEB-2018-UVU
2018-07-07 10:35:53 Seal.Team.S01E22.GERMAN.720p.HDTV.x264-WiSHTV
2018-07-07 10:36:01 Ray_West_and_OC-Rays_Cafe_The_After_Hours-EP-WEB-2014-UVU
2018-07-07 10:36:03 Gott.vergibt.Django.nie.1967.Langfassung.German.DL.1080p.BluRay.AVC-HOVAC
2018-07-07 10:36:14 Professor_Daddy-O-No_Tablecloths-WEB-2018-UVU
2018-07-07 10:36:28 Stetsasonic-On_Fire-WEB-1986-UVU_INT
2018-07-07 10:36:41 Stetsasonic-In_Full_Gear-WEB-1988-UVU_INT
2018-07-07 10:36:51 Stetsasonic-Blood_Sweat_and_No_Tears-WEB-1991-UVU_INT
2018-07-07 10:36:57 Seal.Team.S01E22.GERMAN.DL.1080p.HDTV.x264-WiSHTV
2018-07-07 10:37:46 ALSScan.18.07.07.Hime.Marie.Bad.Girl.XXX.1080p.MP4-KTR
2018-07-07 10:37:58 Seal.Team.S01E22.GERMAN.HDTVRiP.x264-WiSHTV
2018-07-07 10:40:13 MyFriendsHotMom.18.07.07.Ava.Addams.XXX.1080p.MP4-KTR
2018-07-07 10:43:00 NewSensations.18.07.07.Elle.Voneva.XXX.1080p.MP4-KTR
2018-07-07 10:43:17 Gott.vergibt.Django.nie.1967.Langfassung.German.1080p.BluRay.x264-SPiCY
2018-07-07 10:44:12 PornMegaLoad.18.07.06.Amy.Berton.Amys.Sweet.Treats.XXX.1080p.MP4-KTR
2018-07-07 10:45:36 PornMegaLoad.18.07.06.Carla4Garda.Has.A.Fetish.For.The.Men.In.Blue.XXX.1080p.MP4-KTR
2018-07-07 10:46:59 PornMegaLoad.18.07.06.Cherry.Blossoms.Talented.Cherry.XXX.1080p.MP4-KTR
2018-07-07 10:48:11 TheWhiteBoxxx.18.07.07.Lee.Anne.XXX.1080p.MP4-KTR
2018-07-07 10:50:47 Spizoo.18.07.07.Tara.Ashley.Best.Blowjob.POVtara.Ashley.XXX.1080p.MP4-KTR
2018-07-07 10:51:26 Zwei.vom.Affen.gebissen.German.REMASTERED.1967.Comedy.Version.AC3.BDRip.x264-SPiCY
2018-07-07 10:51:48 Prizma.Optimizma.2018.SI.HDTV.x264-RADiOACTiVE
2018-07-07 10:51:49 Prizma.Optimizma.2018.SI.720p.HDTV.x264-RADiOACTiVE
2018-07-07 10:53:46 Forrest.Gump.1994.MULTi.COMPLETE.UHD.BLURAY-FLAME
2018-07-07 10:55:51 ALSScan.18.07.07.Hime.Marie.Bad.Girl.XXX.2160p.MP4-KTR
2018-07-07 10:59:40 Teen.Mom.UK.S03E08.WEB.h264-CROSSFIT
2018-07-07 11:00:42 Spizoo.18.07.07.Tara.Ashley.Best.Blowjob.POV.XXX.DIRFIX.1080p.MP4-KTR
2018-07-07 11:04:26 Masters.of.Illusion.S05E02.REAL.720p.WEB.x264-TBS
2018-07-07 11:05:15 MyFriendsHotMom.18.07.07.Ava.Addams.XXX.2160p.MP4-KTR
2018-07-07 11:05:27 Masters.of.Illusion.S05E02.REAL.WEB.x264-TBS
2018-07-07 11:06:25 Just.Tattoo.of.Us.S03E04.720p.WEB.h264-KLINGON
2018-07-07 11:07:59 What.Would.You.Do.2008.S15E05.WEB.x264-TBS
2018-07-07 11:08:24 What.Would.You.Do.2008.S15E05.720p.WEB.x264-TBS
2018-07-07 11:08:52 NewSensations.18.07.07.Elle.Voneva.XXX.2160p.MP4-KTR
2018-07-07 11:09:06 Million.Dollar.Baby.S01E08.720p.WEB.h264-KLINGON
2018-07-07 11:10:24 Teen.Mom.UK.S03E08.720p.WEB.h264-KLINGON
2018-07-07 11:10:52 Spizoo.18.07.07.Tara.Ashley.Best.Blowjob.POV.XXX.2160p.MP4-KTR
2018-07-07 11:11:33 Quantico.S03E09.1080p.WEB.x264-TBS
2018-07-07 11:13:20 ATKGirlfriends.18.07.07.Bella.Rose.XXX.1080p.MP4-KTR
2018-07-07 11:13:46 Formula1.2018.Austrian.Grand.Prix.On.Board.FRENCH.720p.HDTV.x264-TiTUS
2018-07-07 11:13:53 Formula1.2018.Austrian.Grand.Prix.On.Board.FRENCH.1080p.HDTV.x264-TiTUS
2018-07-07 11:15:17 ATKGirlfriends.18.07.07.Bella.Rose.XXX.2160p.MP4-KTR
2018-07-07 11:15:24 Zwei.vom.Affen.gebissen.1967.Comedy.Version.German.720p.BluRay.x264-SPiCY
2018-07-07 11:17:12 ATKGirlfriends.18.07.07.Jade.Amber.XXX.1080p.MP4-KTR
2018-07-07 11:19:55 ATKGirlfriends.18.07.07.Jade.Amber.XXX.2160p.MP4-KTR
2018-07-07 11:21:29 ClubSeventeen.18.07.07.Gina.Gerson.And.Alexis.Crystal.POV.XXX.1080p.MP4-KTR
2018-07-07 11:23:49 ClubSeventeen.18.07.07.Gina.Gerson.And.Alexis.Crystal.POV.XXX.2160p.MP4-KTR
2018-07-07 11:24:22 VA_-_Le_Tour_De_Trance_2018-WEB-(BHDC492)-WEB-2018-MMS
2018-07-07 11:25:04 ClubSeventeen.18.07.07.Malyshka.Che.Solo.XXX.INTERNAL.1080p.MP4-KTR
2018-07-07 11:27:29 VA_-_Le_Tour_De_Trance_2018-(BHDC492)-DIRFIX-WEB-2018-MMS
2018-07-07 11:29:58 Die.Gabe.zu.Heilen.2017.German.DOKU.DVDRip.x264-DOKUMANiA
2018-07-07 11:30:15 Hustler.18.07.07.Mason.Moore.XXX.1080p.MP4-TRASHBIN
2018-07-07 11:32:10 GirlsOutWest.18.07.07.Zara.M.And.Zazi.XXX.1080p.MP4-TRASHBIN
2018-07-07 11:34:26 GirlsOutWest.18.07.07.Zara.M.And.Zazi.XXX.2160p.MP4-TRASHBIN
2018-07-07 11:34:58 Zwei.vom.Affen.gebissen.1967.Comedy.Version.German.1080p.BluRay.x264-SPiCY
2018-07-07 11:40:20 Descendants.2.2017.German.MULTI.COMPLETE.PAL.DVD9-DVDGRP
2018-07-07 11:40:31 Jo_Yeong-Wook-Oldboy_Music_From_The_Motion_Picture-CD-FLAC-2017-CRUELTY
2018-07-07 11:41:20 Chefs.Table.S04E01.GERMAN.DL.DOKU.DUBBED.2160p.WEBRiP.x264-iNFOTv
2018-07-07 11:41:35 Die.Gabe.zu.Heilen.2017.German.DOKU.COMPLETE.PAL.DVD9-DVDGRP
2018-07-07 11:44:45 Tom_Misch-Geography-(JP_Retail)-2018-CaHeSo
2018-07-07 11:49:35 VA_-_Subjekt_X_Ade_17_Sampler-(ARSBJKT031)-WEB-2017-MMS
2018-07-07 11:51:15 Jo_Yeong-Wook-Oldboy_(Music_From_The_Motion_Picture)-CD-2017-CRUELTYx_iNT
2018-07-07 11:52:44 Chefs.Table.S04E03.GERMAN.DL.DOKU.DUBBED.2160p.WEBRiP.x264-iNFOTv
2018-07-07 12:02:10 BoldlyGirls.18.07.07.Jenaveve.Jolie.REMASTERED.XXX.1080p.MP4-KTR
2018-07-07 12:05:53 Re.Zero.Starting.Life.In.Another.World.E01A.FRENCH.720p.BluRay.x264-SHiNiGAMi
2018-07-07 12:07:55 Re.Zero.Starting.Life.In.Another.World.E01A.MULTi.1080p.BluRay.x264-SHiNiGAMi
2018-07-07 12:09:46 Re.Zero.Starting.Life.In.Another.World.E01A.SUBFRENCH.720p.BluRay.x264-SHiNiGAMi
2018-07-07 12:12:16 Re.Zero.Starting.Life.In.Another.World.E01B.FRENCH.720p.BluRay.x264-SHiNiGAMi
2018-07-07 12:14:06 Re.Zero.Starting.Life.In.Another.World.E01B.MULTi.1080p.BluRay.x264-SHiNiGAMi
2018-07-07 12:15:20 Teenikini.E55.Dillion.Harper.And.Jade.Kush.Invisible.Bikini.Tease.1.XXX.1080p.MP4-KTR
2018-07-07 12:15:22 12.Monkeys.S04E10.1080p.WEB.x264-TBS
2018-07-07 12:15:53 12.Monkeys.S04E10.iNTERNAL.720p.WEB.x264-BAMBOOZLE
2018-07-07 12:16:26 Teenikini.E55.Dillion.Harper.And.Jade.Kush.Invisible.Bikini.Tease.2.XXX.1080p.MP4-KTR
2018-07-07 12:16:35 Re.Zero.Starting.Life.In.Another.World.E01B.SUBFRENCH.720p.BluRay.x264-SHiNiGAMi
2018-07-07 12:18:59 Re.Zero.Starting.Life.In.Another.World.E02.FRENCH.720p.BluRay.x264-SHiNiGAMi
2018-07-07 12:22:33 Re.Zero.Starting.Life.In.Another.World.E02.MULTi.1080p.BluRay.x264-SHiNiGAMi
2018-07-07 12:24:11 Forever_Lost_-_Get_It_Done-WEB-2018-MMS_INT
2018-07-07 12:24:48 BlackAmbush.18.07.07.Sunny.XXX.720p.MP4-KTR
2018-07-07 12:26:46 DeepThroatSirens.18.07.04.Austin.Lynn.XXX.1080p.MP4-KTR
2018-07-07 12:29:13 FacialsForever.18.06.30.Karter.Foxx.XXX.1080p.MP4-KTR
2018-07-07 12:30:42 FacialsForever.18.07.06.Audrey.Royal.XXX.1080p.MP4-KTR
2018-07-07 12:41:42 FinishHim.18.07.05.Stephi.Staar.XXX.1080p.MP4-KTR
2018-07-07 12:42:57 The_Smurfs_Dance_Party_Toys_R_Us_Edition_USA_Wii-PUSSYCAT
2018-07-07 12:43:58 Sir_Spyro_-_BBC1Xtra-SAT-07-06-2018-TALiON
2018-07-07 12:44:13 VI.Oranje.Blijft.Thuis.2018.07.06.DUTCH.720p.HDTV.x264-DTOD
2018-07-07 12:44:33 MatureNL.18.07.05.Michelle.Russo.XXX.1080p.MP4-KTR
2018-07-07 12:45:58 Mousse_T_-_Club_FG__Summer_Session-SAT-07-06-2018-TALiON
2018-07-07 12:46:20 MatureNL.18.07.06.Eva.Jayne.XXX.1080p.MP4-KTR
2018-07-07 12:46:26 Shooter.S03E03.iTALiAN.WEB.x264-NTROPiC
2018-07-07 12:46:58 Bob_Sinclar_-_The_Bob_Sinclar_Show-SAT-07-07-2018-TALiON
2018-07-07 12:47:18 Shooter.S03E03.iTALiAN.720p.WEB.x264-NTROPiC
2018-07-07 12:47:59 Joachim_Garraud_-_Ze_Mixx-SAT-07-07-2018-TALiON
2018-07-07 12:48:13 Shooter.S03E03.iTALiAN.MULTi.1080p.WEB.x264-NTROPiC
2018-07-07 12:49:00 POVManiaXXX.18.06.30.Tara.Ashley.POV.Blowjob.XXX.1080p.MP4-KTR
2018-07-07 12:50:15 POVManiaXXX.18.07.06.Sizi.Sev.Goes.POV.XXX.1080p.MP4-KTR
2018-07-07 12:50:57 Free.Rein.S02E08.MULTi.1080p.WEBRip.x264-BRiNK
2018-07-07 12:51:00 Free.Rein.S02E09.MULTi.1080p.WEBRip.x264-BRiNK
2018-07-07 12:51:57 RealGirlsGoneBad.18.07.07.Ibiza.Babes.23.Part.1.XXX.1080p.MP4-KTR
2018-07-07 12:55:42 RodneyMoore.18.07.04.Brooke.Logan.Brookes.First.Time.XXX.1080p.MP4-KTR
2018-07-07 12:57:26 Free.Rein.S02E06.1080p.WEBRip.x264-SERIOUSLY
2018-07-07 12:58:02 RodneyMoore.18.07.05.Kacey.Parker.Mop.Topless.XXX.1080p.MP4-KTR
2018-07-07 12:59:28 Free.Rein.S02E08.1080p.WEBRip.x264-SERIOUSLY
2018-07-07 13:01:23 12.Monkeys.S04E11.iNTERNAL.720p.WEB.x264-BAMBOOZLE
2018-07-07 13:01:31 12.Monkeys.S04E11.1080p.WEB.x264-TBS
2018-07-07 13:02:50 The.Skin.of.the.Wolf.2017.FRENCH.720p.WEBRip.x264-BRiNK
2018-07-07 13:02:55 The.Skin.of.the.Wolf.2017.MULTi.1080p.WEBRip.x264-BRiNK
2018-07-07 13:12:27 VI.Oranje.Blijft.Thuis.2018.07.06.DUTCH.1080p.HDTV.x264-DTOD
2018-07-07 13:14:23 Brothers_Feat_Ranieri_-_Forever_Young-WEB-2018-iDC
2018-07-07 13:16:06 Chicago.PD.S05E15.FRENCH.720p.HDTV.x264-SH0W
2018-07-07 13:16:15 Chicago.PD.S05E16.FRENCH.720p.HDTV.x264-SH0W
2018-07-07 13:18:29 ALSAngels.18.07.03.Lexie.Fox.Masturbation.XXX.2160p.MP4-KTR
2018-07-07 13:19:35 AussieAss.18.07.04.Kate.Barlow.Kates.Solo.Casting.XXX.720p.MP4-KTR
2018-07-07 13:20:53 AussieFellatioQueens.18.06.30.Arianna.North.Cum.Glass.Swallow.XXX.1080p.MP4-KTR
2018-07-07 13:22:04 AussieFellatioQueens.18.07.07.Lucie.Bee.Blowjob.Instruction.XXX.1080p.MP4-KTR
2018-07-07 13:23:22 BlowBangGirls.18.07.06.Adora.Bell.And.Lunacita.XXX.1080p.MP4-KTR
2018-07-07 13:24:43 BrickYates.18.07.03.Joclyn.XXX.1080p.MP4-KTR
2018-07-07 13:26:04 DigitalDesire.18.07.04.Aidra.Fox.XXX.1080p.MP4-KTR
2018-07-07 13:28:38 FAKings.18.07.04.Musa.Libertina.And.Jade.Presley.SPANISH.XXX.720p.MP4-KTR
2018-07-07 13:29:46 FAKings.18.07.06.Alejandra.SPANISH.XXX.720p.MP4-KTR
2018-07-07 13:30:58 FallInLovia.18.07.07.My.Bed.XXX.1080p.MP4-KTR
2018-07-07 13:33:43 GirlsGoneWild.18.06.30.Audrey.And.Cecilia.Wild.Scissoring.At.The.Yoga.Class.XXX.1080p.MP4-KTR
2018-07-07 13:34:42 GirlsGoneWild.18.07.01.Bambi.Comes.On.The.Balcony.XXX.1080p.MP4-KTR
2018-07-07 13:36:53 HeavyOnHotties.18.07.06.Lucette.Nice.Discovering.Her.Body.XXX.1080p.MP4-KTR
2018-07-07 13:37:43 RileyVega.18.07.02.Beach.Perv.XXX.720p.MP4-KTR
2018-07-07 13:42:13 Formula.1.2018.British.Grand.Prix.3rd.Practice.DANiSH.720p.HDTV.x264-RCDiVX
2018-07-07 13:45:12 Dark.Net.S01E01.DOC.SUBFRENCH.WEB.x264-CiELOS
2018-07-07 13:45:19 Dark.Net.S01E02.DOC.SUBFRENCH.1080p.WEB.x264-CiELOS
2018-07-07 13:45:29 Dark.Net.S01E02.DOC.SUBFRENCH.WEB.x264-CiELOS
2018-07-07 13:45:35 Dark.Net.S01E03.DOC.SUBFRENCH.1080p.WEB.x264-CiELOS
2018-07-07 13:45:36 Dark.Net.S01E05.DOC.SUBFRENCH.WEB.x264-CiELOS
2018-07-07 13:45:39 Dark.Net.S01E06.DOC.SUBFRENCH.WEB.x264-CiELOS
2018-07-07 13:45:46 Dark.Net.S01E07.DOC.SUBFRENCH.WEB.x264-CiELOS
2018-07-07 13:45:52 Dark.Net.S01E08.FiNAL.DOC.SUBFRENCH.WEB.x264-CiELOS
2018-07-07 13:45:55 Dark.Net.S01E08.FiNAL.DOC.SUBFRENCH.1080p.WEB.x264-CiELOS
2018-07-07 13:46:06 Dark.Net.S02E01.DOC.SUBFRENCH.WEB.x264-CiELOS
2018-07-07 13:46:12 Dark.Net.S02E01.DOC.SUBFRENCH.1080p.WEB.x264-CiELOS
2018-07-07 13:46:16 Dark.Net.S02E02.DOC.SUBFRENCH.WEB.x264-CiELOS
2018-07-07 13:46:21 Dark.Net.S02E02.DOC.SUBFRENCH.1080p.WEB.x264-CiELOS
2018-07-07 13:46:34 Dark.Net.S02E03.DOC.SUBFRENCH.720p.WEB.x264-CiELOS
2018-07-07 13:46:37 Dark.Net.S02E03.DOC.SUBFRENCH.1080p.WEB.x264-CiELOS
2018-07-07 13:46:47 Dark.Net.S02E04.DOC.SUBFRENCH.WEB.x264-CiELOS
2018-07-07 13:46:51 Dark.Net.S02E04.DOC.SUBFRENCH.720p.WEB.x264-CiELOS
2018-07-07 13:46:54 Dark.Net.S02E04.DOC.SUBFRENCH.1080p.WEB.x264-CiELOS
2018-07-07 13:48:30 Dark.Net.S02E06.DOC.SUBFRENCH.WEB.x264-CiELOS
2018-07-07 13:48:32 Dark.Net.S02E06.DOC.SUBFRENCH.720p.WEB.x264-CiELOS
2018-07-07 13:48:36 Dark.Net.S02E06.DOC.SUBFRENCH.1080p.WEB.x264-CiELOS
2018-07-07 13:49:50 Dark.Net.S02E07.DOC.SUBFRENCH.WEB.x264-CiELOS
2018-07-07 13:49:52 Dark.Net.S02E07.DOC.SUBFRENCH.720p.WEB.x264-CiELOS
2018-07-07 13:51:13 ElegantAngel.Best.New.Starlets.2018.XXX.1080p.MP4-KTR
2018-07-07 13:51:45 Formula.1.2018.British.Grand.Prix.3rd.Practice.DANiSH.HDTV.x264-RCDiVX
2018-07-07 13:52:24 Dark.Net.S02E08.FiNAL.DOC.SUBFRENCH.WEB.x264-CiELOS
2018-07-07 13:53:19 ElegantAngel.Bush.Vol.7.XXX.1080p.MP4-KTR
2018-07-07 13:55:54 ElegantAngel.Oil.Explosion.3.XXX.1080p.MP4-KTR
2018-07-07 13:58:27 Vanhelga-Fredagsmys-WEB-2018-KLV
2018-07-07 13:58:50 ElegantAngel.Performers.Of.The.Year.2018.XXX.1080p.MP4-KTR
2018-07-07 14:03:29 El.Dia.De.Manyana.2018.S01E02.SPANiSH.1080p.HDTV.x264-FCC
2018-07-07 14:03:54 El.Dia.De.Manyana.2018.S01E02.SPANiSH.720p.HDTV.x264-FCC
2018-07-07 14:04:11 El.Dia.De.Manyana.2018.S01E02.SPANiSH.HDTV.x264-FCC
2018-07-07 14:04:33 Instinct.US.S01E10.SPANiSH.1080p.HDTV.x264-FCC
2018-07-07 14:05:01 Instinct.US.S01E10.SPANiSH.720p.HDTV.x264-FCC
2018-07-07 14:05:16 Instinct.US.S01E10.SPANiSH.HDTV.x264-FCC
2018-07-07 14:05:41 Nashville.2012.S06E13.SPANiSH.1080p.HDTV.x264-FCC
2018-07-07 14:06:04 Nashville.2012.S06E13.SPANiSH.720p.HDTV.x264-FCC
2018-07-07 14:06:26 Sobrenatural.S13E11.SPANiSH.1080p.HDTV.x264-FCC
2018-07-07 14:06:44 Sobrenatural.S13E11.SPANiSH.720p.HDTV.x264-FCC
2018-07-07 14:07:02 Sobrenatural.S13E12.SPANiSH.1080p.HDTV.x264-FCC
2018-07-07 14:07:24 Sobrenatural.S13E11.SPANiSH.HDTV.x264-FCC
2018-07-07 14:07:37 Sobrenatural.S13E12.SPANiSH.720p.HDTV.x264-FCC
2018-07-07 14:07:48 Sobrenatural.S13E12.SPANiSH.HDTV.x264-FCC
2018-07-07 14:29:20 Tamako.Market.E01.1080p.WEB.x264-DARKFLiX
2018-07-07 14:30:10 Tamako.Market.E01.720p.WEB.x264-DARKFLiX
2018-07-07 14:30:58 Tamako.Market.E01.WEB.x264-DARKFLiX
2018-07-07 14:31:43 Tamako.Market.E02.1080p.WEB.x264-DARKFLiX
2018-07-07 14:32:15 Das.Syndikat.1972.GERMAN.DL.COMPLETE.PAL.BONUS.DVDR-iNViTE
2018-07-07 14:32:30 Tamako.Market.E02.720p.WEB.x264-DARKFLiX
2018-07-07 14:33:17 Tamako.Market.E02.WEB.x264-DARKFLiX
2018-07-07 14:34:06 Tamako.Market.E03.1080p.WEB.x264-DARKFLiX
2018-07-07 14:35:42 Tamako.Market.E03.WEB.x264-DARKFLiX
2018-07-07 14:36:28 Tamako.Market.E04.1080p.WEB.x264-DARKFLiX
2018-07-07 14:37:17 Tamako.Market.E04.720p.WEB.x264-DARKFLiX
2018-07-07 14:37:57 The.Legacy.of.a.Whitetail.Deer.Hunter.2018.FRENCH.WEBRip.x264-BRiNK
2018-07-07 14:38:01 Tamako.Market.E04.WEB.x264-DARKFLiX
2018-07-07 14:38:26 The.Legacy.of.a.Whitetail.Deer.Hunter.2018.FRENCH.720p.WEBRip.x264-BRiNK
2018-07-07 14:38:48 Tamako.Market.E05.1080p.WEB.x264-DARKFLiX
2018-07-07 14:39:35 Tamako.Market.E05.720p.WEB.x264-DARKFLiX
2018-07-07 14:40:20 Tamako.Market.E05.WEB.x264-DARKFLiX
2018-07-07 14:41:06 Tamako.Market.E06.1080p.WEB.x264-DARKFLiX
2018-07-07 14:41:51 Tamako.Market.E06.720p.WEB.x264-DARKFLiX
2018-07-07 14:42:37 Tamako.Market.E06.WEB.x264-DARKFLiX
2018-07-07 14:42:38 Promoe-Off_The_Record-VLS-1999-GCP_INT
2018-07-07 14:43:22 Tamako.Market.E07.1080p.WEB.x264-DARKFLiX
2018-07-07 14:44:08 Tamako.Market.E07.720p.WEB.x264-DARKFLiX
2018-07-07 14:44:51 Producer.Grind.Drum.Sauce.2.MULTiFORMAT-MASCHiNE
2018-07-07 14:44:54 Tamako.Market.E07.WEB.x264-DARKFLiX
2018-07-07 14:45:40 Tamako.Market.E08.1080p.WEB.x264-DARKFLiX
2018-07-07 14:45:56 Production.Master.Fluid.MULTiFORMAT-MASCHiNE
2018-07-07 14:46:26 Tamako.Market.E08.720p.WEB.x264-DARKFLiX
2018-07-07 14:46:48 The_National-Sleep_Well_Beast-JP_Retail-2CD-FLAC-2017-CHS
2018-07-07 14:47:03 Production.Master.Hip.Hop.Gold.MULTiFORMAT-MASCHiNE
2018-07-07 14:47:12 Tamako.Market.E08.WEB.x264-DARKFLiX
2018-07-07 14:47:49 The_National-Sleep_Well_Beast-(JP_Retail)-2CD-2017-CaHeSo
2018-07-07 14:47:58 Tamako.Market.E09.1080p.WEB.x264-DARKFLiX
2018-07-07 14:48:00 Bull.Durham.1988.REMASTERED.720p.BluRay.x264-SiNNERS
2018-07-07 14:48:44 Tamako.Market.E09.720p.WEB.x264-DARKFLiX
2018-07-07 14:49:30 Tamako.Market.E09.WEB.x264-DARKFLiX
2018-07-07 14:50:15 Tamako.Market.E10.1080p.WEB.x264-DARKFLiX
2018-07-07 14:51:01 Tamako.Market.E10.720p.WEB.x264-DARKFLiX
2018-07-07 14:51:52 Tamako.Market.E10.WEB.x264-DARKFLiX
2018-07-07 14:51:58 Bull.Durham.1988.REMASTERED.1080p.BluRay.x264-SiNNERS
2018-07-07 14:52:32 Tamako.Market.E11.1080p.WEB.x264-DARKFLiX
2018-07-07 14:53:18 Tamako.Market.E11.720p.WEB.x264-DARKFLiX
2018-07-07 14:54:03 Tamako.Market.E11.WEB.x264-DARKFLiX
2018-07-07 14:54:50 Tamako.Market.E12.1080p.WEB.x264-DARKFLiX
2018-07-07 14:55:36 Tamako.Market.E12.720p.WEB.x264-DARKFLiX
2018-07-07 14:56:21 Tamako.Market.E12.WEB.x264-DARKFLiX
2018-07-07 14:56:58 The.Addiction.1995.720p.BluRay.x264-SiNNERS
2018-07-07 14:59:22 This.Is.Us.S02E10.POLISH.HDTV.x264-A4O
2018-07-07 14:59:26 The.Addiction.1995.1080p.BluRay.x264-CiNEFiLE
2018-07-07 15:04:21 Mamma.Mia.2008.German.DL.DTSD.2160p.UHD.BluRay.HEVC.DiRFiX-HOVAC
2018-07-07 15:05:20 Geheimes.Katar.Ein.Emirat.auf.WM.Kurs.GERMAN.DOKU.720p.HDTV.x264-TMSF
2018-07-07 15:06:25 Geheimes.Katar.Ein.Emirat.auf.WM.Kurs.GERMAN.DOKU.WS.HDTVRip.x264-TMSF
2018-07-07 15:08:57 Tidsbonanza.S03E10.NORWEGiAN.720p.WEB.x264-CURRYKETCHUP
2018-07-07 15:12:04 This.Is.Us.S02E13.POLISH.HDTV.x264-A4O
2018-07-07 15:13:46 Geheimes.Saudi-Arabien.E01.Auf.den.Spuren.des.Terrors.GERMAN.DOKU.720p.HDTV.x264-TMSF
2018-07-07 15:14:52 Geheimes.Saudi-Arabien.E01.Auf.den.Spuren.des.Terrors.GERMAN.DOKU.WS.HDTVRip.x264-TMSF
2018-07-07 15:15:57 Geheimes.Saudi-Arabien.E02.Auf.der.Spur.des.Geldes.GERMAN.DOKU.720p.HDTV.x264-TMSF
2018-07-07 15:17:02 Geheimes.Saudi-Arabien.E02.Auf.der.Spur.des.Geldes.GERMAN.DOKU.WS.HDTVRip.x264-TMSF
2018-07-07 15:18:09 Geheimes.Saudi-Arabien.E03.Aufbruch.und.Unterdrueckung.GERMAN.DOKU.720p.HDTV.x264-TMSF
2018-07-07 15:18:27 This.Is.Us.S02E14.POLISH.HDTV.x264-A4O
2018-07-07 15:19:14 Geheimes.Saudi-Arabien.E03.Aufbruch.und.Unterdrueckung.GERMAN.DOKU.WS.HDTVRip.x264-TMSF
2018-07-07 15:20:21 Free.Rein.S02E02.German.Dubbed.DL.720p.WEBRip.x264-BiGiNT
2018-07-07 15:21:54 Free.Rein.S02E03.German.Dubbed.DL.1080p.WEBRip.x264-BiGiNT
2018-07-07 15:22:30 Fado.2016.GERMAN.720p.HDTV.x264-muhHD
2018-07-07 15:23:22 Naruto_Shippuden_Ultimate_Ninja_Storm_Trilogy_NSW-VENOM
2018-07-07 15:23:24 Free.Rein.S02E03.German.Dubbed.DL.720p.WEBRip.x264-BiGiNT
2018-07-07 15:24:52 Free.Rein.S02E04.German.Dubbed.DL.1080p.WEBRip.x264-BiGiNT
2018-07-07 15:26:21 Free.Rein.S02E04.German.Dubbed.DL.720p.WEBRip.x264-BiGiNT
2018-07-07 15:27:50 Free.Rein.S02E05.German.Dubbed.DL.1080p.WEBRip.x264-BiGiNT
2018-07-07 15:28:35 Splatoon_2_Octo_Expansion_DLC_EUR_NSW-VENOM
2018-07-07 15:29:15 Free.Rein.S02E05.German.Dubbed.DL.720p.WEBRip.x264-BiGiNT
2018-07-07 15:30:49 Free.Rein.S02E06.German.Dubbed.DL.1080p.WEBRip.x264-BiGiNT
2018-07-07 15:32:16 Free.Rein.S02E06.German.Dubbed.DL.720p.WEBRip.x264-BiGiNT
2018-07-07 15:36:14 The.Emperors.New.Groove.2000.NORDiC.COMPLETE.BLURAY-GERUDO
2018-07-07 15:36:26 Prey.Vom.Jaeger.zur.Beute.German.2010.AC3.BDRip.x264.iNTERNAL-EXPS
2018-07-07 15:39:08 Prey.Vom.Jaeger.zur.Beute.2010.German.720p.BluRay.x264.iNTERNAL-EXPS
2018-07-07 15:40:04 Free.Rein.S02E07.German.Dubbed.DL.1080p.WEBRip.x264-BiGiNT
2018-07-07 15:41:35 Free.Rein.S02E07.German.Dubbed.DL.720p.WEBRip.x264-BiGiNT
2018-07-07 15:42:42 Chicago.Med.S03E16.GERMAN.720p.HDTV.x264-ACED
2018-07-07 15:42:45 This.Is.Us.S02E16.POLISH.HDTV.x264-A4O
2018-07-07 15:43:09 Free.Rein.S02E08.German.Dubbed.DL.1080p.WEBRip.x264-BiGiNT
2018-07-07 15:44:37 Free.Rein.S02E08.German.Dubbed.DL.720p.WEBRip.x264-BiGiNT
2018-07-07 15:45:59 Free.Rein.S02E09.German.Dubbed.DL.1080p.WEBRip.x264-BiGiNT
2018-07-07 15:46:54 Analog_Kitchen-Utopian_Tendencies-WEB-2018-AFO
2018-07-07 15:47:29 Prey.Vom.Jaeger.zur.Beute.2010.German.1080p.BluRay.x264.iNTERNAL-EXPS
2018-07-07 15:48:39 Zoo_Brazil_and_Mark_Fanciulli_Presents_Test_Tone-Aurora-WEB-2018-AFO
2018-07-07 15:48:56 Free.Rein.S02E10.German.Dubbed.DL.1080p.WEBRip.x264-BiGiNT
2018-07-07 15:50:34 Free.Rein.S02E10.German.Dubbed.DL.720p.WEBRip.x264-BiGiNT
2018-07-07 15:53:03 The.Emperors.New.Groove.2000.FiNNiSH.BDRip.x264-PiER
2018-07-07 15:54:15 The.Emperors.New.Groove.2000.iNTERNAL.DANiSH.BDRip.x264-PiER
2018-07-07 15:54:42 The.Emperors.New.Groove.2000.iNTERNAL.NORWEGiAN.BDRip.x264-PiER
2018-07-07 15:54:45 The.Emperors.New.Groove.2000.iNTERNAL.SWEDiSH.BDRip.x264-PiER
2018-07-07 16:00:07 Justice.League.GERMAN.2017.DL.PAL.DVDR-OldsMan
2018-07-07 16:02:33 Mario_De_Caine-The_Fascination-WEB-2018-POWPOW
2018-07-07 16:02:57 Allan_Dark-Rise_Above_This-WEB-2018-POWPOW
2018-07-07 16:03:33 Sergei_Vasilenko-Phoenix-WEB-2018-POWPOW
2018-07-07 16:04:17 Atragun-Caspia-WEB-2018-POWPOW
2018-07-07 16:07:07 Dreaman-Summer_Release-WEB-2018-POWPOW
2018-07-07 16:11:07 Phase.One.Capture.One.v11.2.0.111.MACOSX.Incl.Keygen-AMPED
2018-07-07 16:11:29 Phase.One.Capture.One.v11.2.0.121.Incl.Keygen-AMPED
2018-07-07 16:14:45 Formula1.2018.British.Grand.Prix.Qualifying.720p.HDTV.x264-VERUM
2018-07-07 16:16:11 Bullistik-The_Matador-WEB-2018-POWPOW
2018-07-07 16:18:23 Dza-Alien-WEB-2018-POWPOW
2018-07-07 16:18:57 Miiender-Midnight-WEB-2018-POWPOW
2018-07-07 16:19:32 Leejisan-Hope-WEB-2018-POWPOW
2018-07-07 16:20:10 Kariban-Flute_Boy-WEB-2018-POWPOW
2018-07-07 16:21:08 G-Wizard_and_Sefu-Jump-WEB-2018-POWPOW
2018-07-07 16:21:39 Cloud_41-Back_To_You_(Clay)-WEB-2018-POWPOW
2018-07-07 16:23:29 Powder_Grey-Lunarnaut-WEB-2018-POWPOW
2018-07-07 16:24:11 Astralone__Chummbeat-Kenji-WEB-2018-POWPOW
2018-07-07 16:24:48 Negrusoa-Deadline-WEB-2018-POWPOW
2018-07-07 16:24:55 Formule1.2018.GP10.Engeland.Derde.Vrije.Training.DUTCH.720p.HDTV.x264-DTOD
2018-07-07 16:28:00 Tatort.E069.Transit.ins.Jenseits.GERMAN.FS.720p.HDTV.x264.INTERNAL-ACED
2018-07-07 16:28:48 Tatort.E179.Leiche.im.Keller.GERMAN.FS.720p.HDTV.x264.INTERNAL-ACED
2018-07-07 16:40:19 Seit.du.da.bist.2016.GERMAN.720p.HDTV.x264-TVPOOL
2018-07-07 16:41:06 Zwei.vom.Affen.gebissen.1967.Comedy.Version.German.DL.1080p.BluRay.AVC-HOVAC
2018-07-07 16:42:49 Seit.du.da.bist.2016.GERMAN.HDTVRiP.x264-TVPOOL
2018-07-07 17:07:46 Alien.Nation.1988.German.AC3D.BDRip.x264-GSG9_iNT
2018-07-07 17:08:16 Little.Evil.2017.German.DL.AC3D.2160p.WebUHD.x264-GSG9
2018-07-07 17:08:50 Alien.Nation.1988.German.DL.AC3D.1080p.BluRay.x264-GSG9_iNT
2018-07-07 17:09:50 Alien.Nation.1988.German.DL.AC3D.720p.BluRay.x264-GSG9_iNT
2018-07-07 17:11:08 A.Quiet.Place.2018.German.AC3D.BDRip.x264-GSG9
2018-07-07 17:12:10 A.Quiet.Place.2018.German.DL.AC3D.1080p.BluRay.x264-GSG9
2018-07-07 17:12:19 Suicide.Squad.Hell.to.Pay.2018.German.DL.AC3D.2160p.UHD.BluRay.x265-GSG9
2018-07-07 17:13:13 A.Quiet.Place.2018.German.DL.AC3D.720p.BluRay.x264-GSG9
2018-07-07 17:16:21 Thor.Tag.der.Entscheidung.GERMAN.2017.DL.PAL.DVDR-OldsMan
2018-07-07 17:16:50 Descendants.2.2017.German.DL.DVDRip.x264-LizardSquad
2018-07-07 17:17:25 Die.Grundschullehrerin.2016.German.DVDRip.x264-LizardSquad
2018-07-07 17:18:00 The.Prisoner.TAiWAN.CUT.1990.German.SUBBED.DVDRip.x264-LizardSquad
2018-07-07 17:18:53 Am.Fuss.der.Blauen.Berge.S02E13.German.DL.DVDRip.x264-LizardSquad
2018-07-07 17:19:09 Formula.1.2018.British.Grand.Prix.Qualifying.DANiSH.720p.HDTV.x264-RCDiVX
2018-07-07 17:19:12 Formule1.2018.GP10.Engeland.Kwalificatie.DUTCH.720p.HDTV.x264-DTOD
2018-07-07 17:19:31 Am.Fuss.der.Blauen.Berge.S01E16.German.DL.DVDRip.x264-LizardSquad
2018-07-07 17:20:09 Am.Fuss.der.Blauen.Berge.S01E17.German.DL.DVDRip.x264-LizardSquad
2018-07-07 17:20:55 Academy.fm.The.Ultimate.Guide.to.Synthesis.in.Alchemy.TUTORiAL-ADSR
2018-07-07 17:22:36 Academy.fm.Production.Fundamentals.Logic.Pro.X.Audio.Effects.TUTORiAL-ADSR
2018-07-07 17:22:43 Formula1.2018.British.Grand.Prix.Qualifying.FRENCH.HDTV.x264-TiTUS
2018-07-07 17:22:49 SneakySex.18.07.07.Ivy.Wolfe.This.Should.Fit.XXX.1080p.MP4-KTR
2018-07-07 17:22:50 Formula1.2018.British.Grand.Prix.Qualifying.FRENCH.720p.HDTV.x264-TiTUS
2018-07-07 17:23:02 Formula.1.2018.British.Grand.Prix.Qualifying.DANiSH.HDTV.x264-RCDiVX
2018-07-07 17:24:24 VA-Remothered_Tormented_Fathers_-_Original_Soundtrack-WEB-2018-I_KnoW
2018-07-07 17:24:29 Academy.fm.Production.Fundamentals.Cubase.Instruments.TUTORiAL-ADSR
2018-07-07 17:24:51 Red.Sea.2016.German.DL.DOKU.2160p.UHD.BluRay.x265-UHDTV
2018-07-07 17:43:04 FakehubOriginals.18.07.07.Lovita.Fate.And.Poopea.XXX.1080p.MP4-KTR
2018-07-07 17:46:06 Re.E242.SOS.Notaufnahme.-.Ambulanzen.am.Limit.GERMAN.DOKU.WS.HDTVRip.x264-Pumuck
2018-07-07 17:56:24 Yes.Virginia.There.Is.a.Santa.Claus.1991.BDRip.x264-VoMiT
2018-07-07 17:57:25 Dark.Meat.4.XXX.iNTERNAL.720p.WEBRiP.MP4-GUSH
2018-07-07 17:59:19 FIFA.World.Cup.2018.Quarter.Final.Sweden.vs.England.720p.HDTV.x264-KYR
2018-07-07 18:03:48 Dark.Meat.4.XXX.iNTERNAL.1080p.WEBRiP.MP4-GUSH
2018-07-07 18:18:08 Watch4Beauty.com_18.07.07.Nona.In.The.Spotlight.XXX.IMAGESET-FuGLi
2018-07-07 18:18:37 AmKingdom.com_18.07.07.Coeds.Series.Softcore.16777215.Sophia.Leone.XXX.IMAGESET-FuGLi
2018-07-07 18:18:55 AmKingdom.com_18.07.07.Coeds.Series.Softcore.16777215.Kiara.Cole.XXX.IMAGESET-FuGLi
2018-07-07 18:19:15 AmKingdom.com_18.07.07.Coeds.Series.Softcore.16777215.Autumn.Belle.XXX.IMAGESET-FuGLi
2018-07-07 18:19:19 Formule1.2018.GP10.Engeland.Kwalificatie.DUTCH.1080p.HDTV.x264-DTOD
2018-07-07 18:19:33 AmKingdom.com_18.07.07.Coeds.Series.Softcore.16777215.Karmen.Santana.XXX.IMAGESET-FuGLi
2018-07-07 18:19:54 DP.Masters.6.XXX.iNTERNAL.1080p.WEBRiP.MP4-GUSH
2018-07-07 18:39:14 DP.Masters.6.XXX.iNTERNAL.720p.WEBRiP.MP4-GUSH
2018-07-07 18:40:02 Memoir.of.a.Murderer.2017.1080p.BluRay.x264-REGRET
2018-07-07 18:43:52 Island.Die.magische.Insel.2016.German.DL.DOKU.2160p.UHD.BluRay.HEVC-DOKUMANiA
2018-07-07 18:44:25 Memoir.of.a.Murderer.2017.720p.BluRay.x264-REGRET
2018-07-07 18:47:58 Harukana.Receive.E01.1080p.WEB.x264-DARKFLiX
2018-07-07 18:48:50 Harukana.Receive.E01.720p.WEB.x264-DARKFLiX
2018-07-07 18:49:36 Harukana.Receive.E01.WEB.x264-DARKFLiX
2018-07-07 18:50:23 MAJOR.2nd.S01E14.1080p.WEB.x264-DARKFLiX
2018-07-07 18:50:58 Memoir.of.a.Murderer.2017.BDRip.x264-REGRET
2018-07-07 18:51:08 MAJOR.2nd.S01E14.720p.WEB.x264-DARKFLiX
2018-07-07 18:51:53 Manhunt.2017.1080p.BluRay.x264-REGRET
2018-07-07 18:51:54 MAJOR.2nd.S01E14.WEB.x264-DARKFLiX
2018-07-07 18:52:41 To.Be.Heroine.E07.1080p.WEB.x264-DARKFLiX
2018-07-07 18:53:27 To.Be.Heroine.E07.720p.WEB.x264-DARKFLiX
2018-07-07 18:53:30 Red.Sea.2016.German.DL.DOKU.2160p.UHD.BluRay.HEVC-DOKUMANiA
2018-07-07 18:54:12 To.Be.Heroine.E07.WEB.x264-DARKFLiX
2018-07-07 18:54:31 Eiskalte.Typen.auf.heissen.Oefen.German.REMASTERED.1976.AC3.BDRip.x264-SPiCY
2018-07-07 18:59:34 Manhunt.2017.720p.BluRay.x264-REGRET
2018-07-07 19:01:56 Eiskalte.Typen.auf.heissen.Oefen.1976.German.720p.BluRay.x264-SPiCY
2018-07-07 19:03:26 DP.Masters.6.XXX.iNTERNAL.2160p.WEBRiP.MP4-GUSH
2018-07-07 19:07:06 Crackerjack.1994.COMPLETE.DVDR-CHRONiSO
2018-07-07 19:11:37 Star.Wars.Episode.VIII.Die.letzten.Jedi.GERMAN.2017.PAL.DVDR-OldsMan
2018-07-07 19:12:35 Manhunt.2017.BDRip.x264-REGRET
2018-07-07 19:14:27 A.Quiet.Place.2018.German.DL.2160p.UHD.BluRay.x265-ENDSTATiON
2018-07-07 19:15:32 I.Caught.My.Wife.Fucking.The.Help.2.XXX.iNTERNAL.1080p.WEBRiP.MP4-GUSH
2018-07-07 19:15:50 Kenny.and.Company.1976.1080p.BluRay.x264-REGRET
2018-07-07 19:19:57 Kenny.and.Company.1976.720p.BluRay.x264-REGRET
2018-07-07 19:21:33 A.Quiet.Place.2018.MULTi.2160p.UHD.BluRay.x265-SESKAPiLE
2018-07-07 19:21:57 Eiskalte.Typen.auf.heissen.Oefen.1976.German.1080p.BluRay.x264-SPiCY
2018-07-07 19:24:23 Eiskalte.Typen.auf.heissen.Oefen.UNCUT.German.REMASTERED.1976.AC3.BDRip.x264-SPiCY
2018-07-07 19:29:36 Eiskalte.Typen.auf.heissen.Oefen.UNCUT.1976.German.720p.BluRay.x264-SPiCY
2018-07-07 19:31:04 Prophets_of_Rage-Heart_Afire-SINGLE-WEB-2018-ENTiTLED
2018-07-07 19:33:26 Der.wilde.Pazifik.Die.Schoenheit.des.Lebens.2015.German.DL.DOKU.2160p.UHD.BluRay.x265-UHDTV
2018-07-07 19:38:08 The.Second.Coming.S01.PAL.DVD9-WaLMaRT
2018-07-07 19:39:02 A.Quiet.Place.2018.NORDiC.SUBPACK.BluRay-REQ
2018-07-07 19:39:16 Deadly_Zoo_and_Donna_Lugassy_-_Wine_it_Up-WEB-2018-FMC
2018-07-07 19:46:36 Death.Laid.an.Egg.1968.720p.BluRay.x264-SADPANDA
2018-07-07 19:48:08 Death.Laid.an.Egg.1968.1080p.BluRay.x264-SADPANDA
2018-07-07 19:50:49 Robot.Carnival.1987.1080p.BluRay.x264-SADPANDA
2018-07-07 19:51:45 Peacemaker.1990.COMPLETE.DVDR-CHRONiSO
2018-07-07 19:52:20 Robot.Carnival.1987.720p.BluRay.x264-SADPANDA
2018-07-07 19:57:50 The.Mercenary.1968.DUBBED.COMPLETE.BLURAY-WaLMaRT
2018-07-07 19:59:52 Stargate.SG-1.S06E03.720p.HDTV.x264-SFM
2018-07-07 20:01:39 Stargate.SG-1.S06E05.720p.HDTV.x264-SFM
2018-07-07 20:02:51 Rage.Ring.of.Fire.II.1993.COMPLETE.PAL.DVDR-CHRONiSO
2018-07-07 20:03:22 House.Hunters.S131E10.Single.in.Chicago.DIRFIX.1080p.WEB.x264-CAFFEiNE
2018-07-07 20:03:23 Stargate.SG-1.S06E04.1080p.HDTV.h264-SFM
2018-07-07 20:04:19 Stargate.SG-1.S06E05.1080p.HDTV.h264-SFM
2018-07-07 20:07:20 Eiskalte.Typen.auf.heissen.Oefen.UNCUT.1976.German.1080p.BluRay.x264-SPiCY
2018-07-07 20:08:00 Revenge.1990.COMPLETE.DVDR-CHRONiSO
2018-07-07 20:13:13 Supreme.Sanction.1999.COMPLETE.DVDR-CHRONiSO
2018-07-07 20:14:32 A.Quiet.Place.2018.PL.DUAL.2160p.UHD.BluRay.x265-PLHD
2018-07-07 20:17:49 Olav_Basoski-Samplitude_Vol._1-(WORK34)-VINYL-FLAC-1997-EMP
2018-07-07 20:18:25 The.Master.Demon.1991.COMPLETE.DVDR-CHRONiSO
2018-07-07 20:18:51 Olav_Basoski-Samplitude_Vol._2-(WORK35)-VINYL-FLAC-1998-EMP
2018-07-07 20:19:44 Olav_Basoski-Samplitude_Vol._3-(WORK37)-VINYL-FLAC-1998-EMP
2018-07-07 20:19:46 Shakedown-At_Night_(Remixes)-(DFTD050D2)-WEB-2018-KiEF
2018-07-07 20:20:58 Olav_Basoski-Samplitude_Vol._4-(WORK38)-VINYL-FLAC-1998-EMP
2018-07-07 20:22:20 Olav_Basoski-Samplitude_Vol._5-(WORK41)-VINYL-FLAC-1998-EMP
2018-07-07 20:23:14 Olav_Basoski-Samplitude_Vol._6-(WORK42)-VINYL-FLAC-1999-EMP
2018-07-07 20:26:24 Olav_Basoski-Samplitude_Vol._9-(WORK52)-VINYL-FLAC-2001-EMP
2018-07-07 20:28:05 Olav_Basoski-Samplitude_Vol._11-(SUPERDJ2043)-VINYL-FLAC-2002-EMP
2018-07-07 20:29:03 Olav_Basoski-Samplitude_Vol._13-(SUPERDJ3002)-VINYL-FLAC-2004-EMP
2018-07-07 20:32:18 Assassination.Classroom.The.Movie.365.Days.2016.MULTi.1080p.BluRay.x264-SHiNiGAMi
2018-07-07 20:32:24 Fussball.FIFA.WM.2018.Viertelfinale.Brasilien.vs.Belgien.GERMAN.720p.HDTV.x264-SAPH1R
2018-07-07 20:33:19 Fussball.FIFA.WM.2018.Viertelfinale.Brasilien.vs.Belgien.GERMAN.HDTVRip.x264-SAPH1R
2018-07-07 20:38:39 Assassination.Classroom.The.Movie.365.Days.2016.FRENCH.720p.BluRay.x264-SHiNiGAMi
2018-07-07 20:41:41 Assassination.Classroom.The.Movie.365.Days.2016.SUBFRENCH.720p.BluRay.x264-SHiNiGAMi
2018-07-07 20:41:57 Eiskalte.Typen.auf.heissen.Oefen.1976.German.DL.1080p.BluRay.AVC-HOVAC
2018-07-07 20:43:17 The.Wound.2017.LiMiTED.SUBBED.DVDRip.x264-CADAVER
2018-07-07 20:43:19 FIFA.Weltmeisterschaft.2018.Viertelfinale.Uruguay.vs.Frankreich.German.720p.HDTV.x264-WiNMAU
2018-07-07 20:43:42 Music.Girls.E01.SUBBED.1080p.WEB.x264-DARKFLiX
2018-07-07 20:44:29 Music.Girls.E01.SUBBED.720p.WEB.x264-DARKFLiX
2018-07-07 20:45:13 Music.Girls.E01.SUBBED.WEB.x264-DARKFLiX
2018-07-07 20:45:59 Persona.5.The.Animation.S01E14.SUBBED.1080p.WEB.x264-DARKFLiX
2018-07-07 20:46:44 Persona.5.The.Animation.S01E14.SUBBED.720p.WEB.x264-DARKFLiX
2018-07-07 20:47:30 Persona.5.The.Animation.S01E14.SUBBED.WEB.x264-DARKFLiX
2018-07-07 20:53:51 Eiskalte.Typen.auf.heissen.Oefen.UNCUT.1976.German.DL.1080p.BluRay.AVC-HOVAC
2018-07-07 21:05:17 Vet.Gone.Wild.S01E05.Island.of.Koalas.WEBRip.x264-CAFFEiNE
2018-07-07 21:10:34 A.Quiet.Place.Un.Posto.Tranquillo.2018.iTALiAN.MULTi.2160p.UHD.BluRay.x265-ROMEO
2018-07-07 21:18:28 Pacific.Rim.Uprising.3D.2018.iTALiAN.1080p.BluRay.x264-NTROPiC
2018-07-07 21:18:58 Pacific.Rim.Uprising.3D.2018.MULTi.COMPLETE.BLURAY-MHT
2018-07-07 21:23:51 Esco-A_Coeur_Ouvert-(Bootleg)-FR-2018-H5N1
2018-07-07 21:27:10 XMR-Mixtape_Vol.1-(Bootleg)-FR-2018-H5N1
2018-07-07 21:31:54 The.Ultimate.Fighter.S27.Finale.WEB.h264-VERUM
2018-07-07 21:36:56 Alla.Bygger.S02E08.SWEDiSH.720p.HDTV.x264-TAXi
2018-07-07 21:38:17 The.Ultimate.Fighter.S27.Finale.720p.WEB.h264-VERUM
2018-07-07 21:43:15 SBK.2018.Rimini.Superpole.720p.HDTV.x264-VERUM
2018-07-07 21:50:48 Beatless.E20.FiNAL.SUBFRENCH.1080p.WEBRip.x264-AMB3R
2018-07-07 21:52:52 Formula1.2018.British.Grand.Prix.Paddock.Uncut.1080p.HDTV.x264-GRiP
2018-07-07 21:53:52 Formula1.2018.British.Grand.Prix.Paddock.Uncut.720p.HDTV.x264-GRiP
2018-07-07 21:54:53 Formula1.2018.British.Grand.Prix.Paddock.Uncut.HDTV.x264-GRiP
2018-07-07 21:55:54 Formula1.2018.British.Grand.Prix.Practice.Three.1080p.HDTV.x264-GRiP
2018-07-07 21:56:55 Formula1.2018.British.Grand.Prix.Practice.Three.HDTV.x264-GRiP
2018-07-07 21:57:56 Formula1.2018.British.Grand.Prix.The.F1.Show.Special.PDTV.x264-GRiP
2018-07-07 21:58:56 Ankhara_-_Sinergia-(RER135)-ES-2018-MCA
2018-07-07 21:58:57 Formula2.2018.British.Grand.Prix.Race.One.PDTV.x264-GRiP
2018-07-07 21:59:58 GP3.2018.British.Grand.Prix.Race.One.PDTV.x264-GRiP
2018-07-07 22:02:33 Making.Out.2016.1080p.WEBRip.x264-iNTENSO
2018-07-07 22:03:36 Making.Out.2016.720p.WEBRip.x264-iNTENSO
2018-07-07 22:04:38 Making.Out.2016.WEBRip.x264-iNTENSO
2018-07-07 22:05:41 The.Legacy.of.a.Whitetail.Deer.Hunter.2018.1080p.WEBRip.x264-iNTENSO
2018-07-07 22:06:26 Lechery_-_We_Are_All_Born_Evil-(IUCP-16286)-2018-MCA_int
2018-07-07 22:06:42 The.Legacy.of.a.Whitetail.Deer.Hunter.2018.720p.WEBRip.x264-iNTENSO
2018-07-07 22:07:30 Tinashe-Tinashe-WEB-2016-ESG
2018-07-07 22:07:45 The.Legacy.of.a.Whitetail.Deer.Hunter.2018.WEBRip.x264-iNTENSO
2018-07-07 22:08:40 The_Nude_Party-Hot_Tub-WEB-2016-ENTiTLED
2018-07-07 22:17:16 Tinashe-Black_Water-WEB-2018-ESG
2018-07-07 22:21:31 Diners.Drive.Ins.And.Dives.S28E14.Playin.Chicken.WEBRip.x264-CAFFEiNE
2018-07-07 22:23:17 Gantz.O.2016.COMPLETE.BLURAY-REGRET
2018-07-07 22:28:52 Athentech.Perfectly.Clear.Complete.v3.5.7.MACOSX-AMPED
2018-07-07 22:29:13 Athentech.Perfectly.Clear.Complete.v3.5.7.X64-AMPED
2018-07-07 22:38:39 Source.Code.2011.DUAL.COMPLETE.BLURAY-FLAME
2018-07-07 22:39:44 Source.Code.2011.PL.DUAL.2160p.UHD.BluRay.x264-FLAME
2018-07-07 22:40:26 Tau.2018.WEBRip.x264-FLAME
2018-07-07 22:41:20 Tau.2018.1080p.WEBRip.x264-FLAME
2018-07-07 22:43:35 FIFA.Weltmeisterschaft.2018.Viertelfinale.Brasilien.vs.Belgien.German.720p.HDTV.x264.iNTERNAL-WiNMAU
2018-07-07 22:45:14 Source.Code.2011.PL.DUAL.2160p.UHD.BluRay.x265.DiRFiX-FLAME
2018-07-07 22:47:30 FIFA.Weltmeisterschaft.2018.Viertelfinale.Brasilien.vs.Belgien.German.HDTVRip.x264.iNTERNAL-WiNMAU
2018-07-07 22:52:29 Tau.2018.POLISH.WEBRip.x264-FLAME
2018-07-07 22:53:19 Tau.2018.POLISH.720p.WEBRip.x264-FLAME
2018-07-07 22:53:50 Tau.2018.POLISH.1080p.WEBRip.x264-FLAME
2018-07-07 22:54:24 Formula1.2018.British.Grand.Prix.Qualifying.FRENCH.1080p.HDTV.x264-TiTUS
2018-07-07 23:05:15 House.Of.Anubis.S02E59.House.Of.Zodiacs.HDTV.x264-PLUTONiUM
2018-07-07 23:05:54 Back.To.Burgundy.2017.LiMiTED.DVDRip.x264-LPD
2018-07-07 23:06:21 House.Of.Anubis.S02E59.House.Of.Zodiacs.720p.HDTV.x264-PLUTONiUM
2018-07-07 23:13:03 Bast.I.Sverige.S04E05.DiRFiX.SWEDiSH.720p.WEB.x264-SAAB
2018-07-07 23:14:23 Ruhr_in_Love_2018_-_Kerstin_Eden_Live-SAT-07-07-2018-XDS
2018-07-07 23:15:16 Ruhr_in_Love_2018_-_Party_Favor_Live-SAT-07-07-2018-XDS
2018-07-07 23:16:31 Ruhr_in_Love_2018_-_Ostblockschlampen_Live-SAT-07-07-2018-XDS
2018-07-07 23:17:14 Ruhr_in_Love_2018_-_Cubrick_Live-SAT-07-07-2018-XDS
2018-07-07 23:17:52 Plastik_Funk_-_In_the_Mix_at_BigCityBeats-SAT-07-06-2018-XDS
2018-07-07 23:18:26 Koyu_-_In_the_Mix_at_BigCityBeats-SAT-07-07-2018-XDS
2018-07-07 23:19:17 David_Guetta_-_In_the_Mix_at_BigCityBeats-SAT-07-06-2018-XDS
2018-07-07 23:20:04 Con_Tacto_-_In_the_Mix_at_BigCityBeats-SAT-07-07-2018-XDS
2018-07-07 23:20:44 Markus_Fix_-_In_the_Mix_at_Clubbers_Paradise-CABLE-07-07-2018-XDS
2018-07-07 23:23:16 Cold.Skin.2017.COMPLETE.PAL.DVDR-WaLMaRT
2018-07-07 23:23:41 FIFA.World.Cup.2018.Quarter.Final.England.Vs.Sweden.UNCUT.HDTV.x264-PLUTONiUM
2018-07-07 23:25:57 Marco_Bailey_-_Materia_Music_035__Incl_Dany_Rodriguez_Guestmix-SAT-07-07-2018-TALiON
2018-07-07 23:26:57 Hardwell_-_On_Air_374-SAT-07-06-2018-TALiON
2018-07-07 23:27:58 Fedde_le_Grand_-_Dark_Light_Sessions_307-SAT-07-07-2018-TALiON
2018-07-07 23:28:59 Claude_VonStroke_-_Birdhouse_Radio_146__Incl_Detroit_Swindle_Guestmix-CABLE-06-30-2018-TALiON
2018-07-07 23:29:58 Claude_VonStroke_-_Birdhouse_Radio_147__Incl_Steve_Darko_Guestmix-CABLE-07-07-2018-TALiON
2018-07-07 23:31:59 Erick_Morillo_-_Subliminal_Sessions_067-SAT-07-06-2018-TALiON
2018-07-07 23:32:59 Sander_van_Doorn_-_Identity_450-SAT-07-06-2018-TALiON
2018-07-07 23:33:57 Martin_Garrix_-_The_Martin_Garrix_Radio_Show_199-SAT-07-06-2018-TALiON
2018-07-07 23:34:58 Oliver_Heldens_-_Heldeep_Radio_213-SAT-07-06-2018-TALiON
2018-07-07 23:37:00 The_Partysquad_-_Palooza_(FunX)-CABLE-07-07-2018-TALiON
2018-07-07 23:38:00 Dyna_-_On_Air_(FunX)-CABLE-07-07-2018-TALiON
2018-07-07 23:38:42 Glenn_Jones-Take_It_From_Me_(Expanded_Version)-BONUS_TRACKS-WEB-1986-ESG
2018-07-07 23:47:07 Hidden.2018.S01E05.720p.HDTV.x264-MTB
2018-07-07 23:48:10 Hidden.2018.S01E05.1080p.HDTV.H264-MTB
2018-07-07 23:49:35 A.Quiet.Place.2018.COMPLETE.UHD.BLURAY-OMFUG
2018-07-07 23:58:50 Care-Diamonds_And_Emeralds-WEB-1997-ESG
2018-07-07 23:59:49 A.Quiet.Place.2018.German.DL.2160p.UHD.BluRay.HEVC-UNTHEVC